Time;durP1;ratioP1;P1;durP2;ratioP2;P2;SDS_P1;SDS_P2;PMS_P1;PMS_P2;Temp;Humidity;BMP_temperature;BMP_pressure;BME280_temperature;BME280_humidity;BME280_pressure;Samples;Min_cycle;Max_cycle;Signal;HPM_P1;HPM_P2
2022/10/24 00:00:41;;;;;;;;;;;;;;;21.10;52.29;99416.69;4478253;32;34232;-95
2022/10/24 00:03:09;;;;;;;;;;;;;;;20.79;52.98;99424.50;4454729;32;34947;-94
2022/10/24 00:05:39;;;;;;;;;;;;;;;21.27;51.98;99416.25;4455185;32;33641;-93
2022/10/24 00:08:07;;;;;;;;;;;;;;;21.64;50.87;99410.00;4469488;32;33363;-96
2022/10/24 00:10:35;;;;;;;;;;;;;;;21.50;51.25;99415.66;4432175;32;33289;-93
2022/10/24 00:13:02;;;;;;;;;;;;;;;21.00;52.91;99410.78;4443877;32;33555;-94
2022/10/24 00:15:30;;;;;;;;;;;;;;;21.37;51.76;99415.13;4427478;32;34200;-94
2022/10/24 00:17:57;;;;;;;;;;;;;;;21.53;51.16;99408.53;4440156;32;31896;-95
2022/10/24 00:20:24;;;;;;;;;;;;;;;21.11;52.41;99406.09;4444557;32;33362;-94
2022/10/24 00:22:51;;;;;;;;;;;;;;;21.00;52.72;99407.31;4428672;32;34798;-95
2022/10/24 00:25:19;;;;;;;;;;;;;;;20.73;53.22;99417.62;4467032;32;33691;-95
2022/10/24 00:27:46;;;;;;;;;;;;;;;21.28;51.94;99410.06;4462859;32;32755;-95
2022/10/24 00:30:13;;;;;;;;;;;;;;;20.94;52.95;99413.56;4427801;32;33161;-95
2022/10/24 00:32:41;;;;;;;;;;;;;;;21.49;51.52;99413.94;4441929;32;34799;-94
2022/10/24 00:35:09;;;;;;;;;;;;;;;21.36;51.54;99398.41;4451554;32;34024;-95
2022/10/24 00:37:36;;;;;;;;;;;;;;;21.40;51.70;99399.19;4456012;32;33401;-95
2022/10/24 00:40:05;;;;;;;;;;;;;;;20.55;53.90;99407.53;4444197;32;33897;-96
2022/10/24 00:42:32;;;;;;;;;;;;;;;20.08;55.24;99405.06;4468093;32;35525;-92
2022/10/24 00:45:00;;;;;;;;;;;;;;;20.35;54.66;99395.69;4441423;32;33577;-95
2022/10/24 00:47:27;;;;;;;;;;;;;;;20.09;55.40;99401.53;4431063;32;34365;-94
2022/10/24 00:50:01;;;;;;;;;;;;;;;19.99;55.78;99400.00;4454489;32;34207;-94
2022/10/24 00:52:33;;;;;;;;;;;;;;;19.90;55.98;99403.69;4462125;32;35200;-94
2022/10/24 00:55:00;;;;;;;;;;;;;;;20.57;54.08;99397.81;4447644;32;34904;-94
2022/10/24 00:57:33;;;;;;;;;;;;;;;20.12;55.27;99403.25;4454997;32;33136;-95
2022/10/24 01:00:03;;;;;;;;;;;;;;;19.69;56.48;99393.63;4467863;32;34124;-91
2022/10/24 01:02:30;;;;;;;;;;;;;;;19.38;57.63;99386.31;4433441;32;33162;-94
2022/10/24 01:04:58;;;;;;;;;;;;;;;19.79;56.06;99395.16;4443336;32;33787;-94
2022/10/24 01:07:28;;;;;;;;;;;;;;;20.34;54.73;99399.22;4453649;32;32458;-94
2022/10/24 01:10:14;;;;;;;;;;;;;;;19.76;56.42;99395.22;4482267;32;33903;-95
2022/10/24 01:12:45;;;;;;;;;;;;;;;20.47;54.25;99388.38;4469263;32;35108;-94
2022/10/24 01:15:22;;;;;;;;;;;;;;;19.48;57.07;99379.12;4445982;32;34902;-95
2022/10/24 01:17:49;;;;;;;;;;;;;;;19.67;56.41;99384.91;4451542;32;32319;-93
2022/10/24 01:20:21;;;;;;;;;;;;;;;18.83;59.28;99386.47;4440738;32;34223;-93
2022/10/24 01:22:56;;;;;;;;;;;;;;;19.47;57.34;99380.00;4460097;32;34045;-93
2022/10/24 01:25:31;;;;;;;;;;;;;;;19.20;57.82;99389.28;4443493;32;33910;-95
2022/10/24 01:28:10;;;;;;;;;;;;;;;19.42;57.29;99393.25;4441856;32;32144;-95
2022/10/24 01:30:42;;;;;;;;;;;;;;;19.68;56.69;99397.16;4456908;32;33577;-94
2022/10/24 01:33:14;;;;;;;;;;;;;;;19.73;56.38;99400.53;4432839;32;32793;-94
2022/10/24 01:35:43;;;;;;;;;;;;;;;20.16;55.12;99410.16;4460408;32;34123;-96
2022/10/24 01:38:13;;;;;;;;;;;;;;;19.87;55.76;99405.53;4443478;32;33033;-94
2022/10/24 01:40:50;;;;;;;;;;;;;;;20.59;53.46;99383.72;4449491;32;33054;-93
2022/10/24 01:43:18;;;;;;;;;;;;;;;20.37;54.02;99391.22;4437157;32;33650;-94
2022/10/24 01:45:46;;;;;;;;;;;;;;;19.53;56.66;99393.03;4448072;32;33779;-95
2022/10/24 01:48:14;;;;;;;;;;;;;;;19.85;55.78;99389.78;4454737;32;32889;-93
2022/10/24 01:50:42;;;;;;;;;;;;;;;20.61;53.62;99387.19;4451914;32;34226;-96
2022/10/24 01:53:09;;;;;;;;;;;;;;;20.16;54.65;99389.09;4453291;32;33735;-95
2022/10/24 01:55:36;;;;;;;;;;;;;;;20.31;54.19;99383.47;4441517;32;33799;-94
2022/10/24 01:58:05;;;;;;;;;;;;;;;20.32;54.12;99379.94;4450177;32;32473;-94
2022/10/24 02:00:32;;;;;;;;;;;;;;;20.42;53.99;99378.84;4428680;32;33738;-91
2022/10/24 02:03:00;;;;;;;;;;;;;;;20.18;54.35;99374.13;4466791;32;34202;-93
2022/10/24 02:05:32;;;;;;;;;;;;;;;19.57;55.91;99367.53;4437468;32;31456;-95
2022/10/24 02:08:01;;;;;;;;;;;;;;;20.20;54.34;99369.69;4458586;32;33385;-95
2022/10/24 02:10:29;;;;;;;;;;;;;;;20.26;54.08;99366.03;4461208;32;34921;-94
2022/10/24 02:12:59;;;;;;;;;;;;;;;19.43;56.59;99357.28;4455581;32;33572;-95
2022/10/24 02:15:27;;;;;;;;;;;;;;;19.18;57.35;99352.53;4448365;32;32931;-96
2022/10/24 02:17:54;;;;;;;;;;;;;;;18.77;58.74;99353.28;4440287;32;31630;-91
2022/10/24 02:20:24;;;;;;;;;;;;;;;19.30;57.11;99347.94;4453353;32;34116;-93
2022/10/24 02:22:55;;;;;;;;;;;;;;;19.11;57.67;99337.78;4453515;32;34861;-94
2022/10/24 02:25:24;;;;;;;;;;;;;;;19.29;57.12;99341.81;4453258;32;33857;-94
2022/10/24 02:27:52;;;;;;;;;;;;;;;19.32;56.76;99348.75;4441520;32;33186;-94
2022/10/24 02:30:20;;;;;;;;;;;;;;;18.55;59.49;99351.88;4445194;32;34092;-94
2022/10/24 02:32:49;;;;;;;;;;;;;;;19.07;58.01;99358.88;4445722;32;34169;-93
2022/10/24 02:35:17;;;;;;;;;;;;;;;19.08;57.80;99355.34;4460751;32;33863;-92
2022/10/24 02:37:49;;;;;;;;;;;;;;;19.06;57.61;99359.78;4453141;32;33755;-93
2022/10/24 02:40:17;;;;;;;;;;;;;;;18.20;60.16;99355.94;4440714;32;33884;-95
2022/10/24 02:42:45;;;;;;;;;;;;;;;18.35;60.11;99345.19;4453245;32;34094;-94
2022/10/24 02:45:12;;;;;;;;;;;;;;;18.07;60.91;99355.28;4432350;32;32573;-94
2022/10/24 02:47:40;;;;;;;;;;;;;;;18.32;60.13;99355.75;4425295;32;34146;-94
2022/10/24 02:50:07;;;;;;;;;;;;;;;18.53;59.53;99359.81;4412750;32;33106;-95
2022/10/24 02:52:35;;;;;;;;;;;;;;;18.05;61.05;99370.16;4441956;32;34100;-94
2022/10/24 02:55:03;;;;;;;;;;;;;;;18.13;60.61;99378.78;4430674;32;34214;-94
2022/10/24 02:57:30;;;;;;;;;;;;;;;18.39;59.92;99370.50;4440222;32;33460;-94
2022/10/24 02:59:57;;;;;;;;;;;;;;;19.13;57.59;99356.13;4439853;32;33455;-94
2022/10/24 03:02:25;;;;;;;;;;;;;;;18.32;59.40;99358.38;4454478;32;34520;-93
2022/10/24 03:04:52;;;;;;;;;;;;;;;18.92;57.93;99347.75;4446340;32;33542;-94
2022/10/24 03:07:19;;;;;;;;;;;;;;;18.99;57.87;99343.25;4434440;32;33306;-95
2022/10/24 03:09:47;;;;;;;;;;;;;;;17.87;61.09;99341.53;4463812;32;34079;-94
2022/10/24 03:12:15;;;;;;;;;;;;;;;17.79;61.68;99322.44;4442355;32;34491;-92
2022/10/24 03:14:42;;;;;;;;;;;;;;;17.64;62.34;99326.97;4449469;32;33584;-95
2022/10/24 03:17:10;;;;;;;;;;;;;;;18.18;60.74;99321.88;4453163;32;33409;-92
2022/10/24 03:19:37;;;;;;;;;;;;;;;17.78;62.05;99321.56;4482457;32;34194;-94
2022/10/24 03:22:04;;;;;;;;;;;;;;;18.65;59.10;99314.94;4466072;32;34077;-94
2022/10/24 03:24:32;;;;;;;;;;;;;;;18.42;59.91;99320.59;4445041;32;33695;-95
2022/10/24 03:27:10;;;;;;;;;;;;;;;18.75;58.83;99334.03;4473111;32;33166;-91
2022/10/24 03:29:38;;;;;;;;;;;;;;;18.85;58.59;99322.50;4457794;32;33629;-95
2022/10/24 03:32:05;;;;;;;;;;;;;;;19.11;57.34;99327.25;4454542;32;34403;-94
2022/10/24 03:34:32;;;;;;;;;;;;;;;17.80;61.50;99340.75;4440076;32;34072;-93
2022/10/24 03:37:00;;;;;;;;;;;;;;;18.29;60.05;99344.41;4468679;32;31978;-96
2022/10/24 03:39:27;;;;;;;;;;;;;;;18.98;57.98;99335.38;4457773;32;33878;-95
2022/10/24 03:41:54;;;;;;;;;;;;;;;18.03;60.89;99339.56;4442875;32;33783;-93
2022/10/24 03:44:21;;;;;;;;;;;;;;;18.49;59.72;99326.62;4474495;32;33376;-95
2022/10/24 03:46:48;;;;;;;;;;;;;;;18.56;59.18;99332.59;4457350;32;34037;-96
2022/10/24 03:49:16;;;;;;;;;;;;;;;18.67;58.84;99330.66;4474839;32;34196;-92
2022/10/24 03:51:43;;;;;;;;;;;;;;;17.66;61.99;99337.44;4418238;32;33692;-94
2022/10/24 03:54:14;;;;;;;;;;;;;;;18.39;59.57;99349.50;4444703;32;33066;-94
2022/10/24 03:56:41;;;;;;;;;;;;;;;18.68;58.85;99345.53;4470050;32;33057;-93
2022/10/24 03:59:09;;;;;;;;;;;;;;;19.51;56.38;99351.88;4452396;32;33674;-94
2022/10/24 04:01:36;;;;;;;;;;;;;;;19.73;55.54;99342.66;4438768;32;33662;-94
2022/10/24 04:04:04;;;;;;;;;;;;;;;19.61;55.68;99342.91;4443442;32;34238;-96
2022/10/24 04:06:31;;;;;;;;;;;;;;;19.64;55.55;99346.37;4447578;32;33095;-94
2022/10/24 04:09:02;;;;;;;;;;;;;;;19.82;54.84;99347.75;4456524;32;33358;-93
2022/10/24 04:11:30;;;;;;;;;;;;;;;19.05;57.21;99348.38;4441594;32;33233;-95
2022/10/24 04:13:57;;;;;;;;;;;;;;;19.55;55.66;99359.69;4442834;32;33758;-94
2022/10/24 04:16:25;;;;;;;;;;;;;;;18.99;57.21;99348.53;4432124;32;32752;-95
2022/10/24 04:18:52;;;;;;;;;;;;;;;19.09;56.70;99343.94;4442924;32;32973;-92
2022/10/24 04:21:19;;;;;;;;;;;;;;;18.52;58.62;99341.44;4477779;32;34421;-92
2022/10/24 04:23:48;;;;;;;;;;;;;;;18.90;57.62;99330.28;4449089;32;33345;-95
2022/10/24 04:26:15;;;;;;;;;;;;;;;17.88;60.79;99343.28;4455476;32;33351;-93
2022/10/24 04:28:43;;;;;;;;;;;;;;;17.77;61.20;99332.97;4447535;32;34230;-92
2022/10/24 04:31:10;;;;;;;;;;;;;;;17.67;61.56;99344.41;4453205;32;34346;-95
2022/10/24 04:33:37;;;;;;;;;;;;;;;18.15;59.99;99340.28;4446440;32;33139;-92
2022/10/24 04:36:05;;;;;;;;;;;;;;;17.69;61.33;99345.25;4476134;32;33283;-95
2022/10/24 04:38:32;;;;;;;;;;;;;;;18.31;59.40;99333.03;4437411;32;33471;-94
2022/10/24 04:41:00;;;;;;;;;;;;;;;17.95;60.52;99337.91;4438776;32;35236;-92
2022/10/24 04:43:27;;;;;;;;;;;;;;;17.88;60.85;99328.44;4436786;32;34014;-94
2022/10/24 04:45:54;;;;;;;;;;;;;;;18.36;59.33;99331.19;4464090;32;32155;-91
2022/10/24 04:48:21;;;;;;;;;;;;;;;18.14;59.60;99330.66;4441409;32;34514;-93
2022/10/24 04:50:49;;;;;;;;;;;;;;;18.01;60.29;99320.38;4460814;32;34156;-91
2022/10/24 04:53:16;;;;;;;;;;;;;;;17.84;60.78;99324.13;4439835;32;34416;-94
2022/10/24 04:55:43;;;;;;;;;;;;;;;17.51;61.91;99315.78;4436409;32;33238;-92
2022/10/24 04:58:10;;;;;;;;;;;;;;;17.94;60.53;99307.34;4454443;32;34016;-91
2022/10/24 05:00:37;;;;;;;;;;;;;;;16.96;63.81;99321.66;4453546;32;33024;-94
2022/10/24 05:03:05;;;;;;;;;;;;;;;17.01;63.80;99314.63;4453161;32;32945;-94
2022/10/24 05:05:32;;;;;;;;;;;;;;;17.33;62.70;99316.00;4453393;32;31709;-95
2022/10/24 05:08:00;;;;;;;;;;;;;;;17.91;60.30;99320.50;4454095;32;33851;-94
2022/10/24 05:10:27;;;;;;;;;;;;;;;18.74;58.08;99334.94;4439364;32;34181;-94
2022/10/24 05:12:55;;;;;;;;;;;;;;;18.67;58.21;99338.53;4453250;32;33319;-93
2022/10/24 05:15:22;;;;;;;;;;;;;;;17.90;60.58;99336.25;4453380;32;33096;-93
2022/10/24 05:17:49;;;;;;;;;;;;;;;18.50;58.47;99344.09;4452909;32;33484;-95
2022/10/24 05:20:17;;;;;;;;;;;;;;;18.67;58.07;99349.03;4428533;32;34523;-92
2022/10/24 05:22:44;;;;;;;;;;;;;;;18.94;57.20;99347.72;4440107;32;33599;-93
2022/10/24 05:25:12;;;;;;;;;;;;;;;18.44;58.68;99360.78;4427788;32;32638;-93
2022/10/24 05:27:39;;;;;;;;;;;;;;;18.77;57.51;99366.41;4427964;32;34042;-93
2022/10/24 05:30:07;;;;;;;;;;;;;;;18.74;57.77;99366.47;4452111;32;34220;-93
2022/10/24 05:32:34;;;;;;;;;;;;;;;19.59;55.37;99373.66;4437889;32;33424;-94
2022/10/24 05:35:06;;;;;;;;;;;;;;;19.79;54.61;99368.84;4428517;32;32240;-90
2022/10/24 05:37:33;;;;;;;;;;;;;;;19.50;55.43;99361.53;4426207;32;33124;-92
2022/10/24 05:40:00;;;;;;;;;;;;;;;19.13;55.93;99359.66;4425487;32;32899;-95
2022/10/24 05:42:28;;;;;;;;;;;;;;;19.57;54.99;99371.03;4424726;32;32948;-91
2022/10/24 05:44:55;;;;;;;;;;;;;;;19.30;55.54;99377.72;4431802;32;32523;-92
2022/10/24 05:47:22;;;;;;;;;;;;;;;19.59;54.85;99382.41;4441558;32;33117;-94
2022/10/24 05:49:54;;;;;;;;;;;;;;;19.79;54.29;99383.78;4440676;32;34281;-94
2022/10/24 05:52:22;;;;;;;;;;;;;;;20.16;53.25;99378.56;4406470;32;32562;-94
2022/10/24 05:54:49;;;;;;;;;;;;;;;19.96;53.72;99388.66;4428441;32;32965;-94
2022/10/24 05:57:33;;;;;;;;;;;;;;;19.41;55.47;99388.88;4436421;32;34292;-94
2022/10/24 06:00:00;;;;;;;;;;;;;;;19.35;55.44;99394.25;4453298;32;33513;-94
2022/10/24 06:02:38;;;;;;;;;;;;;;;19.49;55.30;99390.50;4429672;32;32982;-93
2022/10/24 06:05:06;;;;;;;;;;;;;;;18.95;56.65;99395.00;4427934;32;33226;-94
2022/10/24 06:07:34;;;;;;;;;;;;;;;19.36;55.47;99385.50;4430780;32;34054;-95
2022/10/24 06:10:02;;;;;;;;;;;;;;;18.56;57.54;99390.38;4433343;32;33861;-95
2022/10/24 06:12:29;;;;;;;;;;;;;;;18.84;57.10;99386.44;4428390;32;32957;-94
2022/10/24 06:14:57;;;;;;;;;;;;;;;19.06;56.40;99376.41;4445813;32;33805;-94
2022/10/24 06:17:25;;;;;;;;;;;;;;;18.66;56.98;99370.94;4434480;32;33987;-95
2022/10/24 06:19:53;;;;;;;;;;;;;;;18.79;57.16;99384.75;4442366;32;34301;-96
2022/10/24 06:22:23;;;;;;;;;;;;;;;18.71;57.63;99369.13;4449225;32;33547;-96
2022/10/24 06:24:50;;;;;;;;;;;;;;;18.57;57.63;99369.34;4447469;32;32220;-95
2022/10/24 06:27:18;;;;;;;;;;;;;;;17.64;60.72;99366.28;4427391;32;34900;-95
2022/10/24 06:29:45;;;;;;;;;;;;;;;18.48;58.08;99362.47;4444557;32;34298;-95
2022/10/24 06:32:33;;;;;;;;;;;;;;;18.60;58.02;99361.44;4439564;32;33366;-93
2022/10/24 06:35:01;;;;;;;;;;;;;;;18.36;58.62;99360.06;4450701;32;32890;-96
2022/10/24 06:37:30;;;;;;;;;;;;;;;18.90;56.94;99360.06;4440526;32;34058;-94
2022/10/24 06:39:58;;;;;;;;;;;;;;;18.87;57.09;99359.25;4401235;32;33119;-94
2022/10/24 06:42:25;;;;;;;;;;;;;;;18.32;58.68;99376.75;4448874;32;33150;-93
2022/10/24 06:44:57;;;;;;;;;;;;;;;18.96;56.70;99359.06;4415075;32;32395;-96
2022/10/24 06:47:27;;;;;;;;;;;;;;;18.81;57.02;99348.84;4426924;32;34171;-95
2022/10/24 06:50:11;;;;;;;;;;;;;;;19.54;55.20;99357.06;4418169;32;33397;-96
2022/10/24 06:53:00;;;;;;;;;;;;;;;18.90;56.61;99367.06;4407672;32;32796;-93
2022/10/24 06:55:28;;;;;;;;;;;;;;;18.54;57.68;99369.41;4428596;32;32784;-93
2022/10/24 06:58:12;;;;;;;;;;;;;;;18.66;57.71;99365.69;4431960;32;32958;-94
2022/10/24 07:00:39;;;;;;;;;;;;;;;18.19;59.09;99376.06;4454236;32;34250;-94
2022/10/24 07:03:07;;;;;;;;;;;;;;;18.23;58.88;99383.00;4414795;32;33004;-93
2022/10/24 07:05:35;;;;;;;;;;;;;;;17.99;59.53;99379.00;4413224;32;32043;-95
2022/10/24 07:08:08;;;;;;;;;;;;;;;18.33;58.68;99386.34;4413701;32;34542;-94
2022/10/24 07:10:36;;;;;;;;;;;;;;;18.48;58.08;99393.97;4437840;32;33355;-94
2022/10/24 07:13:04;;;;;;;;;;;;;;;18.45;58.06;99404.56;4424185;32;34006;-92
2022/10/24 07:15:31;;;;;;;;;;;;;;;18.46;58.00;99402.78;4417231;32;32852;-93
2022/10/24 07:17:59;;;;;;;;;;;;;;;19.08;56.31;99405.28;4407557;32;32944;-94
2022/10/24 07:20:26;;;;;;;;;;;;;;;19.24;55.89;99406.72;4424962;32;33342;-95
2022/10/24 07:22:53;;;;;;;;;;;;;;;19.63;55.12;99409.53;4437981;32;34408;-94
2022/10/24 07:25:21;;;;;;;;;;;;;;;19.76;54.48;99402.25;4417219;32;31932;-93
2022/10/24 07:27:51;;;;;;;;;;;;;;;19.56;54.88;99407.88;4436110;32;33220;-94
2022/10/24 07:30:18;;;;;;;;;;;;;;;19.39;55.48;99416.09;4421323;32;33586;-94
2022/10/24 07:32:47;;;;;;;;;;;;;;;19.89;53.97;99409.88;4446385;32;33242;-96
2022/10/24 07:35:15;;;;;;;;;;;;;;;18.92;56.24;99400.31;4426643;32;33547;-93
2022/10/24 07:37:42;;;;;;;;;;;;;;;19.18;55.86;99406.84;4437132;32;33737;-94
2022/10/24 07:40:11;;;;;;;;;;;;;;;19.02;56.42;99406.28;4428811;32;32634;-93
2022/10/24 07:42:38;;;;;;;;;;;;;;;18.60;57.75;99418.31;4425235;32;32785;-94
2022/10/24 07:45:06;;;;;;;;;;;;;;;19.04;56.28;99416.75;4424063;32;31641;-91
2022/10/24 07:47:34;;;;;;;;;;;;;;;18.83;56.91;99425.88;4443154;32;32786;-94
2022/10/24 07:50:01;;;;;;;;;;;;;;;18.61;57.93;99420.06;4437544;32;33415;-94
2022/10/24 07:52:28;;;;;;;;;;;;;;;18.84;57.23;99431.09;4425041;32;33398;-92
2022/10/24 07:54:57;;;;;;;;;;;;;;;18.58;58.08;99425.34;4437121;32;32633;-94
2022/10/24 07:57:24;;;;;;;;;;;;;;;19.13;56.59;99424.44;4457717;32;34965;-96
2022/10/24 07:59:51;;;;;;;;;;;;;;;19.56;55.40;99416.66;4465326;32;34068;-95
2022/10/24 08:02:19;;;;;;;;;;;;;;;19.16;56.43;99433.16;4467879;32;33889;-94
2022/10/24 08:04:46;;;;;;;;;;;;;;;19.12;56.74;99436.72;4440195;32;34222;-95
2022/10/24 08:07:13;;;;;;;;;;;;;;;19.52;55.74;99435.16;4448778;32;34158;-95
2022/10/24 08:09:43;;;;;;;;;;;;;;;19.56;55.46;99428.94;4450560;32;34432;-93
2022/10/24 08:12:11;;;;;;;;;;;;;;;19.52;55.79;99427.25;4453477;32;35151;-94
2022/10/24 08:14:40;;;;;;;;;;;;;;;18.89;57.40;99424.00;4439441;32;33179;-95
2022/10/24 08:17:08;;;;;;;;;;;;;;;18.94;57.24;99419.53;4439509;32;34138;-92
2022/10/24 08:19:35;;;;;;;;;;;;;;;18.76;58.10;99411.09;4447003;32;35110;-92
2022/10/24 08:22:03;;;;;;;;;;;;;;;18.55;58.52;99413.13;4467259;32;34005;-93
2022/10/24 08:24:30;;;;;;;;;;;;;;;18.94;57.47;99397.63;4459483;32;32032;-93
2022/10/24 08:26:58;;;;;;;;;;;;;;;18.52;58.96;99407.06;4440630;32;34238;-92
2022/10/24 08:29:25;;;;;;;;;;;;;;;18.43;59.20;99411.56;4438064;32;33533;-93
2022/10/24 08:31:54;;;;;;;;;;;;;;;18.70;58.58;99414.66;4452618;32;33839;-93
2022/10/24 08:34:22;;;;;;;;;;;;;;;19.56;55.86;99400.00;4451713;32;32731;-92
2022/10/24 08:36:49;;;;;;;;;;;;;;;19.25;56.58;99395.34;4452992;32;34231;-94
2022/10/24 08:39:16;;;;;;;;;;;;;;;18.94;57.42;99398.53;4447556;32;32938;-92
2022/10/24 08:41:46;;;;;;;;;;;;;;;18.84;58.01;99396.94;4450901;32;34894;-93
2022/10/24 08:44:29;;;;;;;;;;;;;;;19.01;57.53;99398.41;4439622;32;32888;-93
2022/10/24 08:47:16;;;;;;;;;;;;;;;19.23;56.72;99394.50;4466742;32;34198;-92
2022/10/24 08:49:49;;;;;;;;;;;;;;;18.85;57.78;99387.28;4467131;32;34969;-92
2022/10/24 08:52:17;;;;;;;;;;;;;;;20.11;54.32;99390.97;4453000;32;34179;-93
2022/10/24 08:54:44;;;;;;;;;;;;;;;19.35;56.16;99382.88;4440237;32;31904;-92
2022/10/24 08:57:25;;;;;;;;;;;;;;;18.91;57.60;99388.06;4439811;32;32792;-92
2022/10/24 08:59:53;;;;;;;;;;;;;;;19.59;55.90;99382.41;4453559;32;33501;-93
2022/10/24 09:02:24;;;;;;;;;;;;;;;19.27;56.79;99380.38;4444720;32;34372;-93
2022/10/24 09:04:55;;;;;;;;;;;;;;;19.31;56.67;99384.69;4438867;32;34245;-93
2022/10/24 09:07:23;;;;;;;;;;;;;;;19.24;56.67;99380.44;4439033;32;34008;-93
2022/10/24 09:09:59;;;;;;;;;;;;;;;19.30;56.58;99374.22;4438523;32;33863;-92
2022/10/24 09:12:27;;;;;;;;;;;;;;;18.21;59.93;99384.78;4439334;32;34732;-94
2022/10/24 09:14:56;;;;;;;;;;;;;;;19.09;57.64;99384.25;4436510;32;33129;-92
2022/10/24 09:17:27;;;;;;;;;;;;;;;18.41;59.52;99387.12;4453373;32;34631;-92
2022/10/24 09:19:55;;;;;;;;;;;;;;;19.15;57.48;99383.25;4447989;32;33415;-94
2022/10/24 09:22:23;;;;;;;;;;;;;;;19.16;57.55;99383.22;4438808;32;33979;-94
2022/10/24 09:25:02;;;;;;;;;;;;;;;18.45;59.55;99383.56;4439105;32;33305;-93
2022/10/24 09:27:31;;;;;;;;;;;;;;;18.75;58.57;99399.72;4418357;32;32955;-92
2022/10/24 09:29:59;;;;;;;;;;;;;;;19.71;56.04;99391.84;4468700;32;35109;-91
2022/10/24 09:32:31;;;;;;;;;;;;;;;19.43;56.21;99392.38;4454224;32;34158;-92
2022/10/24 09:35:06;;;;;;;;;;;;;;;19.77;55.17;99396.94;4441110;32;32537;-91
2022/10/24 09:37:37;;;;;;;;;;;;;;;20.32;53.49;99394.88;4435118;32;33787;-92
2022/10/24 09:40:13;;;;;;;;;;;;;;;20.21;53.91;99416.19;4452713;32;34618;-91
2022/10/24 09:42:43;;;;;;;;;;;;;;;20.45;53.44;99416.50;4439011;32;34805;-92
2022/10/24 09:45:17;;;;;;;;;;;;;;;20.58;52.99;99420.63;4424578;32;34194;-92
2022/10/24 09:47:45;;;;;;;;;;;;;;;20.74;52.77;99424.63;4452859;32;34586;-92
2022/10/24 09:50:20;;;;;;;;;;;;;;;20.28;53.30;99424.81;4425977;32;34815;-91
2022/10/24 09:52:49;;;;;;;;;;;;;;;20.85;52.33;99422.59;4438274;32;33872;-91
2022/10/24 09:55:17;;;;;;;;;;;;;;;21.25;51.41;99407.50;4426010;32;32371;-92
2022/10/24 09:57:45;;;;;;;;;;;;;;;21.03;51.77;99409.88;4432374;32;34685;-94
2022/10/24 10:00:23;;;;;;;;;;;;;;;20.77;52.26;99414.00;4461492;32;34357;-94
2022/10/24 10:03:00;;;;;;;;;;;;;;;21.18;51.48;99403.31;4457002;32;34544;-93
2022/10/24 10:05:43;;;;;;;;;;;;;;;20.55;52.83;99415.44;4448712;32;32875;-95
2022/10/24 10:08:11;;;;;;;;;;;;;;;20.70;52.71;99411.56;4441531;32;34079;-94
2022/10/24 10:10:38;;;;;;;;;;;;;;;20.81;52.60;99402.50;4444590;32;34349;-92
2022/10/24 10:13:17;;;;;;;;;;;;;;;20.71;52.60;99408.88;4449743;32;34121;-93
2022/10/24 10:15:46;;;;;;;;;;;;;;;21.25;51.44;99394.31;4453725;32;33921;-95
2022/10/24 10:18:21;;;;;;;;;;;;;;;21.03;51.92;99399.31;4438495;32;34832;-94
2022/10/24 10:20:59;;;;;;;;;;;;;;;20.75;52.45;99400.00;4426168;32;34037;-93
2022/10/24 10:23:28;;;;;;;;;;;;;;;21.41;51.24;99394.81;4447939;32;33972;-94
2022/10/24 10:26:07;;;;;;;;;;;;;;;21.46;51.11;99385.00;4454392;32;32139;-96
2022/10/24 10:28:35;;;;;;;;;;;;;;;21.27;51.54;99376.69;4454831;32;34096;-94
2022/10/24 10:31:03;;;;;;;;;;;;;;;21.42;51.76;99386.00;4440679;32;33978;-93
2022/10/24 10:33:59;;;;;;;;;;;;;;;21.84;50.50;99384.75;4459190;32;35011;-94
2022/10/24 10:36:30;;;;;;;;;;;;;;;21.76;50.69;99383.25;4437024;32;31673;-92
2022/10/24 10:39:16;;;;;;;;;;;;;;;21.22;52.06;99390.00;4444843;32;34305;-93
2022/10/24 10:41:48;;;;;;;;;;;;;;;21.32;52.28;99383.56;4462191;32;33722;-94
2022/10/24 10:44:34;;;;;;;;;;;;;;;20.54;54.50;99366.31;4426969;32;34692;-93
2022/10/24 10:47:23;;;;;;;;;;;;;;;20.95;53.08;99370.53;4461743;32;33126;-94
2022/10/24 10:49:53;;;;;;;;;;;;;;;21.84;51.24;99374.19;4457499;32;34345;-93
2022/10/24 10:52:29;;;;;;;;;;;;;;;21.47;51.94;99366.47;4458465;32;34373;-93
2022/10/24 10:55:08;;;;;;;;;;;;;;;21.86;51.20;99361.81;4450677;32;34553;-94
2022/10/24 10:57:37;;;;;;;;;;;;;;;21.71;51.12;99361.44;4459951;32;33551;-93
2022/10/24 11:00:12;;;;;;;;;;;;;;;20.97;53.32;99359.94;4446095;32;33330;-93
2022/10/24 11:02:39;;;;;;;;;;;;;;;21.30;52.26;99364.28;4424370;32;33553;-94
2022/10/24 11:05:13;;;;;;;;;;;;;;;21.45;51.40;99356.91;4443581;32;33066;-93
2022/10/24 11:07:55;;;;;;;;;;;;;;;20.05;54.82;99365.66;4427037;32;32093;-92
2022/10/24 11:10:24;;;;;;;;;;;;;;;20.84;52.31;99360.25;4452075;32;34392;-94
2022/10/24 11:12:51;;;;;;;;;;;;;;;20.81;53.41;99362.09;4439060;32;34100;-93
2022/10/24 11:15:19;;;;;;;;;;;;;;;21.35;51.61;99351.88;4452205;32;33252;-93
2022/10/24 11:17:54;;;;;;;;;;;;;;;20.86;53.26;99354.94;4453189;32;33769;-92
2022/10/24 11:20:30;;;;;;;;;;;;;;;21.20;52.41;99356.66;4452920;32;35038;-93
2022/10/24 11:22:58;;;;;;;;;;;;;;;21.05;52.61;99355.31;4428979;32;34832;-94
2022/10/24 11:25:49;;;;;;;;;;;;;;;21.05;52.64;99372.00;4451473;32;34574;-94
2022/10/24 11:28:35;;;;;;;;;;;;;;;21.53;51.08;99374.22;4433027;32;34025;-93
2022/10/24 11:31:07;;;;;;;;;;;;;;;21.54;50.77;99360.13;4451554;32;34794;-92
2022/10/24 11:33:35;;;;;;;;;;;;;;;21.93;49.52;99348.41;4449825;32;34294;-92
2022/10/24 11:36:35;;;;;;;;;;;;;;;21.81;49.79;99358.44;4437490;32;33919;-93
2022/10/24 11:39:06;;;;;;;;;;;;;;;22.34;48.61;99361.22;4420638;32;34365;-92
2022/10/24 11:41:33;;;;;;;;;;;;;;;22.60;47.96;99351.59;4414101;32;32918;-93
2022/10/24 11:44:02;;;;;;;;;;;;;;;22.74;47.62;99352.00;4426498;32;33514;-94
2022/10/24 11:46:34;;;;;;;;;;;;;;;22.67;47.21;99350.47;4424212;32;34023;-92
2022/10/24 11:49:11;;;;;;;;;;;;;;;22.52;47.28;99356.28;4436924;32;33455;-93
2022/10/24 11:51:39;;;;;;;;;;;;;;;22.59;47.01;99352.50;4436920;32;33970;-93
2022/10/24 11:54:16;;;;;;;;;;;;;;;22.81;46.86;99350.88;4441356;32;35224;-92
2022/10/24 11:56:45;;;;;;;;;;;;;;;22.83;47.16;99343.75;4452083;32;34834;-94
2022/10/24 11:59:23;;;;;;;;;;;;;;;22.63;47.04;99351.50;4426769;32;33624;-93
2022/10/24 12:01:50;;;;;;;;;;;;;;;22.48;47.70;99354.66;4444361;32;33996;-91
2022/10/24 12:04:36;;;;;;;;;;;;;;;23.19;46.11;99346.06;4438015;32;34289;-93
2022/10/24 12:07:03;;;;;;;;;;;;;;;23.15;46.28;99341.78;4437914;32;34807;-91
2022/10/24 12:09:54;;;;;;;;;;;;;;;22.96;46.45;99340.72;4437925;32;32834;-92
2022/10/24 12:12:34;;;;;;;;;;;;;;;23.29;45.51;99339.50;4437010;32;33479;-94
2022/10/24 12:15:05;;;;;;;;;;;;;;;23.04;46.13;99344.81;4469265;32;34203;-92
2022/10/24 12:17:45;;;;;;;;;;;;;;;22.09;48.70;99337.34;4470603;32;34097;-91
2022/10/24 12:20:16;;;;;;;;;;;;;;;22.75;47.10;99329.06;4441908;32;32858;-92
2022/10/24 12:22:44;;;;;;;;;;;;;;;22.70;47.27;99320.44;4441082;32;34358;-92
2022/10/24 12:25:20;;;;;;;;;;;;;;;22.60;47.84;99311.94;4428531;32;33504;-93
2022/10/24 12:27:51;;;;;;;;;;;;;;;22.27;48.87;99309.50;4429141;32;34851;-93
2022/10/24 12:30:20;;;;;;;;;;;;;;;21.46;50.17;99314.63;4453793;32;32721;-92
2022/10/24 12:32:49;;;;;;;;;;;;;;;21.32;50.68;99325.53;4413568;32;34352;-90
2022/10/24 12:35:26;;;;;;;;;;;;;;;21.41;50.97;99336.78;4412471;32;32895;-90
2022/10/24 12:37:58;;;;;;;;;;;;;;;22.08;49.20;99329.47;4425382;32;33455;-92
2022/10/24 12:40:43;;;;;;;;;;;;;;;22.05;49.04;99319.03;4426639;32;32871;-92
2022/10/24 12:43:16;;;;;;;;;;;;;;;21.63;49.79;99316.78;4438020;32;34164;-91
2022/10/24 12:45:43;;;;;;;;;;;;;;;21.91;49.16;99321.22;4440124;32;34140;-90
2022/10/24 12:48:29;;;;;;;;;;;;;;;22.14;48.88;99313.47;4426905;32;33435;-91
2022/10/24 12:50:57;;;;;;;;;;;;;;;21.91;49.62;99311.53;4433235;32;33220;-91
2022/10/24 12:53:34;;;;;;;;;;;;;;;21.23;50.68;99312.63;4431824;32;33623;-91
2022/10/24 12:56:09;;;;;;;;;;;;;;;22.17;48.70;99308.09;4451070;32;33212;-91
2022/10/24 12:58:38;;;;;;;;;;;;;;;22.64;47.98;99292.44;4438856;32;33375;-91
2022/10/24 13:01:09;;;;;;;;;;;;;;;22.81;47.60;99290.06;4453696;32;32614;-92
2022/10/24 13:03:42;;;;;;;;;;;;;;;22.60;48.18;99290.81;4423677;32;34129;-90